sensor_id;sensor_type;location;lat;lon;timestamp;P1;durP1;ratioP1;P2;durP2;ratioP2
39140;SDS011;24875;48.436;10.298;2022-07-23T00:00:09;11.65;;;5.32;;
39140;SDS011;24875;48.436;10.298;2022-07-23T00:02:36;9.82;;;5.68;;
39140;SDS011;24875;48.436;10.298;2022-07-23T00:05:03;8.77;;;5.85;;
39140;SDS011;24875;48.436;10.298;2022-07-23T00:07:30;14.15;;;6.68;;
39140;SDS011;24875;48.436;10.298;2022-07-23T00:09:56;9.57;;;6.22;;
39140;SDS011;24875;48.436;10.298;2022-07-23T00:12:23;10.77;;;6.18;;
39140;SDS011;24875;48.436;10.298;2022-07-23T00:14:51;10.20;;;5.78;;
39140;SDS011;24875;48.436;10.298;2022-07-23T00:17:17;9.50;;;5.47;;
39140;SDS011;24875;48.436;10.298;2022-07-23T00:19:44;11.68;;;5.47;;
39140;SDS011;24875;48.436;10.298;2022-07-23T00:22:10;10.93;;;6.13;;
39140;SDS011;24875;48.436;10.298;2022-07-23T00:24:37;11.40;;;6.10;;
39140;SDS011;24875;48.436;10.298;2022-07-23T00:27:03;10.13;;;5.57;;
39140;SDS011;24875;48.436;10.298;2022-07-23T00:29:30;10.15;;;5.60;;
39140;SDS011;24875;48.436;10.298;2022-07-23T00:31:58;12.77;;;5.75;;
39140;SDS011;24875;48.436;10.298;2022-07-23T00:34:24;12.70;;;6.03;;
39140;SDS011;24875;48.436;10.298;2022-07-23T00:36:51;10.52;;;6.55;;
39140;SDS011;24875;48.436;10.298;2022-07-23T00:39:18;11.80;;;6.57;;
39140;SDS011;24875;48.436;10.298;2022-07-23T00:41:46;10.55;;;6.55;;
39140;SDS011;24875;48.436;10.298;2022-07-23T00:44:16;13.85;;;7.00;;
39140;SDS011;24875;48.436;10.298;2022-07-23T00:46:48;13.40;;;6.72;;
39140;SDS011;24875;48.436;10.298;2022-07-23T00:49:19;15.60;;;7.00;;
39140;SDS011;24875;48.436;10.298;2022-07-23T00:51:46;13.27;;;6.60;;
39140;SDS011;24875;48.436;10.298;2022-07-23T00:54:13;10.95;;;6.03;;
39140;SDS011;24875;48.436;10.298;2022-07-23T00:56:41;8.52;;;5.40;;
39140;SDS011;24875;48.436;10.298;2022-07-23T00:59:09;16.00;;;5.88;;
39140;SDS011;24875;48.436;10.298;2022-07-23T01:01:35;10.45;;;5.38;;
39140;SDS011;24875;48.436;10.298;2022-07-23T01:04:02;9.52;;;5.30;;
39140;SDS011;24875;48.436;10.298;2022-07-23T01:06:30;12.60;;;5.28;;
39140;SDS011;24875;48.436;10.298;2022-07-23T01:09:00;9.20;;;5.25;;
39140;SDS011;24875;48.436;10.298;2022-07-23T01:11:27;11.13;;;5.50;;
39140;SDS011;24875;48.436;10.298;2022-07-23T01:13:54;7.95;;;4.85;;
39140;SDS011;24875;48.436;10.298;2022-07-23T01:16:20;8.10;;;5.13;;
39140;SDS011;24875;48.436;10.298;2022-07-23T01:18:47;11.30;;;4.93;;
39140;SDS011;24875;48.436;10.298;2022-07-23T01:21:13;10.93;;;4.82;;
39140;SDS011;24875;48.436;10.298;2022-07-23T01:23:45;9.15;;;4.97;;
39140;SDS011;24875;48.436;10.298;2022-07-23T01:26:11;10.23;;;5.30;;
39140;SDS011;24875;48.436;10.298;2022-07-23T01:28:40;7.75;;;4.53;;
39140;SDS011;24875;48.436;10.298;2022-07-23T01:31:07;10.82;;;5.07;;
39140;SDS011;24875;48.436;10.298;2022-07-23T01:33:33;11.90;;;5.70;;
39140;SDS011;24875;48.436;10.298;2022-07-23T01:36:00;8.75;;;5.28;;
39140;SDS011;24875;48.436;10.298;2022-07-23T01:38:26;9.80;;;5.72;;
39140;SDS011;24875;48.436;10.298;2022-07-23T01:40:54;8.55;;;5.20;;
39140;SDS011;24875;48.436;10.298;2022-07-23T01:43:21;7.72;;;5.05;;
39140;SDS011;24875;48.436;10.298;2022-07-23T01:45:47;9.38;;;4.90;;
39140;SDS011;24875;48.436;10.298;2022-07-23T01:48:14;9.38;;;5.72;;
39140;SDS011;24875;48.436;10.298;2022-07-23T01:50:41;8.10;;;5.22;;
39140;SDS011;24875;48.436;10.298;2022-07-23T01:53:08;10.55;;;5.70;;
39140;SDS011;24875;48.436;10.298;2022-07-23T01:55:34;9.70;;;5.82;;
39140;SDS011;24875;48.436;10.298;2022-07-23T01:58:02;12.18;;;6.50;;
39140;SDS011;24875;48.436;10.298;2022-07-23T02:00:28;9.35;;;5.85;;
39140;SDS011;24875;48.436;10.298;2022-07-23T02:02:55;12.77;;;6.28;;
39140;SDS011;24875;48.436;10.298;2022-07-23T02:05:23;11.93;;;6.47;;
39140;SDS011;24875;48.436;10.298;2022-07-23T02:07:50;14.88;;;6.60;;
39140;SDS011;24875;48.436;10.298;2022-07-23T02:10:17;11.60;;;6.20;;
39140;SDS011;24875;48.436;10.298;2022-07-23T02:12:44;10.02;;;6.13;;
39140;SDS011;24875;48.436;10.298;2022-07-23T02:15:12;11.48;;;5.38;;
39140;SDS011;24875;48.436;10.298;2022-07-23T02:17:38;13.18;;;6.03;;
39140;SDS011;24875;48.436;10.298;2022-07-23T02:20:05;10.65;;;6.18;;
39140;SDS011;24875;48.436;10.298;2022-07-23T02:22:33;14.75;;;7.07;;
39140;SDS011;24875;48.436;10.298;2022-07-23T02:24:59;11.57;;;6.38;;
39140;SDS011;24875;48.436;10.298;2022-07-23T02:27:26;12.02;;;7.13;;
39140;SDS011;24875;48.436;10.298;2022-07-23T02:29:53;17.00;;;7.40;;
39140;SDS011;24875;48.436;10.298;2022-07-23T02:32:21;13.57;;;6.90;;
39140;SDS011;24875;48.436;10.298;2022-07-23T02:34:47;12.13;;;6.72;;
39140;SDS011;24875;48.436;10.298;2022-07-23T02:37:13;11.55;;;6.47;;
39140;SDS011;24875;48.436;10.298;2022-07-23T02:39:40;13.77;;;7.13;;
39140;SDS011;24875;48.436;10.298;2022-07-23T02:42:06;12.65;;;6.88;;
39140;SDS011;24875;48.436;10.298;2022-07-23T02:44:33;13.63;;;7.15;;
39140;SDS011;24875;48.436;10.298;2022-07-23T02:47:00;12.20;;;6.78;;
39140;SDS011;24875;48.436;10.298;2022-07-23T02:49:28;12.55;;;6.30;;
39140;SDS011;24875;48.436;10.298;2022-07-23T02:51:54;11.20;;;6.53;;
39140;SDS011;24875;48.436;10.298;2022-07-23T02:54:21;12.18;;;6.60;;
39140;SDS011;24875;48.436;10.298;2022-07-23T02:56:47;11.32;;;7.05;;
39140;SDS011;24875;48.436;10.298;2022-07-23T02:59:15;17.50;;;7.00;;
39140;SDS011;24875;48.436;10.298;2022-07-23T03:01:42;11.63;;;6.90;;
39140;SDS011;24875;48.436;10.298;2022-07-23T03:04:09;9.93;;;6.32;;
39140;SDS011;24875;48.436;10.298;2022-07-23T03:06:37;11.32;;;6.53;;
39140;SDS011;24875;48.436;10.298;2022-07-23T03:09:03;11.57;;;5.97;;
39140;SDS011;24875;48.436;10.298;2022-07-23T03:11:31;11.50;;;6.20;;
39140;SDS011;24875;48.436;10.298;2022-07-23T03:13:58;10.63;;;6.40;;
39140;SDS011;24875;48.436;10.298;2022-07-23T03:16:24;11.93;;;6.55;;
39140;SDS011;24875;48.436;10.298;2022-07-23T03:18:51;14.38;;;6.43;;
39140;SDS011;24875;48.436;10.298;2022-07-23T03:21:17;11.10;;;5.97;;
39140;SDS011;24875;48.436;10.298;2022-07-23T03:23:46;13.25;;;6.25;;
39140;SDS011;24875;48.436;10.298;2022-07-23T03:26:12;11.20;;;6.63;;
39140;SDS011;24875;48.436;10.298;2022-07-23T03:28:39;15.82;;;7.00;;
39140;SDS011;24875;48.436;10.298;2022-07-23T03:31:05;14.18;;;6.93;;
39140;SDS011;24875;48.436;10.298;2022-07-23T03:33:31;11.70;;;6.43;;
39140;SDS011;24875;48.436;10.298;2022-07-23T03:35:58;13.20;;;7.63;;
39140;SDS011;24875;48.436;10.298;2022-07-23T03:38:24;14.63;;;7.38;;
39140;SDS011;24875;48.436;10.298;2022-07-23T03:40:52;15.02;;;7.55;;
39140;SDS011;24875;48.436;10.298;2022-07-23T03:43:19;15.48;;;7.53;;
39140;SDS011;24875;48.436;10.298;2022-07-23T03:45:45;15.10;;;8.00;;
39140;SDS011;24875;48.436;10.298;2022-07-23T03:48:12;13.85;;;7.35;;
39140;SDS011;24875;48.436;10.298;2022-07-23T03:50:38;11.48;;;7.00;;
39140;SDS011;24875;48.436;10.298;2022-07-23T03:53:05;11.20;;;6.97;;
39140;SDS011;24875;48.436;10.298;2022-07-23T03:55:31;18.08;;;7.03;;
39140;SDS011;24875;48.436;10.298;2022-07-23T03:57:59;15.07;;;7.55;;
39140;SDS011;24875;48.436;10.298;2022-07-23T04:00:25;14.40;;;6.60;;
39140;SDS011;24875;48.436;10.298;2022-07-23T04:02:52;13.25;;;7.10;;
39140;SDS011;24875;48.436;10.298;2022-07-23T04:05:18;14.32;;;7.35;;
39140;SDS011;24875;48.436;10.298;2022-07-23T04:07:45;11.10;;;7.20;;
39140;SDS011;24875;48.436;10.298;2022-07-23T04:10:11;13.63;;;7.72;;
39140;SDS011;24875;48.436;10.298;2022-07-23T04:12:37;13.73;;;7.57;;
39140;SDS011;24875;48.436;10.298;2022-07-23T04:15:06;14.68;;;7.53;;
39140;SDS011;24875;48.436;10.298;2022-07-23T04:17:33;11.70;;;6.97;;
39140;SDS011;24875;48.436;10.298;2022-07-23T04:20:00;14.80;;;7.60;;
39140;SDS011;24875;48.436;10.298;2022-07-23T04:22:26;16.33;;;7.32;;
39140;SDS011;24875;48.436;10.298;2022-07-23T04:24:53;16.92;;;7.15;;
39140;SDS011;24875;48.436;10.298;2022-07-23T04:27:20;14.00;;;7.70;;
39140;SDS011;24875;48.436;10.298;2022-07-23T04:29:47;11.50;;;7.20;;
39140;SDS011;24875;48.436;10.298;2022-07-23T04:32:15;12.15;;;6.95;;
39140;SDS011;24875;48.436;10.298;2022-07-23T04:34:41;11.40;;;7.20;;
39140;SDS011;24875;48.436;10.298;2022-07-23T04:37:08;12.20;;;7.00;;
39140;SDS011;24875;48.436;10.298;2022-07-23T04:39:34;13.32;;;7.45;;
39140;SDS011;24875;48.436;10.298;2022-07-23T04:42:00;14.07;;;7.20;;
39140;SDS011;24875;48.436;10.298;2022-07-23T04:44:27;15.85;;;7.60;;
39140;SDS011;24875;48.436;10.298;2022-07-23T04:46:53;15.75;;;7.25;;
39140;SDS011;24875;48.436;10.298;2022-07-23T04:49:21;15.13;;;7.88;;
39140;SDS011;24875;48.436;10.298;2022-07-23T04:51:48;15.00;;;7.88;;
39140;SDS011;24875;48.436;10.298;2022-07-23T04:54:14;14.82;;;7.47;;
39140;SDS011;24875;48.436;10.298;2022-07-23T04:56:42;15.55;;;8.05;;
39140;SDS011;24875;48.436;10.298;2022-07-23T04:59:09;12.18;;;7.40;;
39140;SDS011;24875;48.436;10.298;2022-07-23T05:01:35;13.57;;;8.30;;
39140;SDS011;24875;48.436;10.298;2022-07-23T05:04:02;17.83;;;7.57;;
39140;SDS011;24875;48.436;10.298;2022-07-23T05:06:29;13.38;;;7.97;;
39140;SDS011;24875;48.436;10.298;2022-07-23T05:08:56;14.45;;;8.25;;
39140;SDS011;24875;48.436;10.298;2022-07-23T05:11:22;15.88;;;7.93;;
39140;SDS011;24875;48.436;10.298;2022-07-23T05:13:49;13.48;;;7.82;;
39140;SDS011;24875;48.436;10.298;2022-07-23T05:16:16;17.10;;;8.18;;
39140;SDS011;24875;48.436;10.298;2022-07-23T05:18:42;15.30;;;7.43;;
39140;SDS011;24875;48.436;10.298;2022-07-23T05:21:09;13.75;;;7.35;;
39140;SDS011;24875;48.436;10.298;2022-07-23T05:23:37;20.10;;;8.20;;
39140;SDS011;24875;48.436;10.298;2022-07-23T05:26:03;13.95;;;7.93;;
39140;SDS011;24875;48.436;10.298;2022-07-23T05:28:30;15.73;;;8.65;;
39140;SDS011;24875;48.436;10.298;2022-07-23T05:30:56;16.80;;;8.10;;
39140;SDS011;24875;48.436;10.298;2022-07-23T05:33:23;15.30;;;8.05;;
39140;SDS011;24875;48.436;10.298;2022-07-23T05:35:49;15.25;;;8.70;;
39140;SDS011;24875;48.436;10.298;2022-07-23T05:38:16;16.23;;;7.53;;
39140;SDS011;24875;48.436;10.298;2022-07-23T05:40:44;13.32;;;7.47;;
39140;SDS011;24875;48.436;10.298;2022-07-23T05:43:10;15.93;;;7.30;;
39140;SDS011;24875;48.436;10.298;2022-07-23T05:45:36;23.75;;;7.65;;
39140;SDS011;24875;48.436;10.298;2022-07-23T05:48:03;16.35;;;6.93;;
39140;SDS011;24875;48.436;10.298;2022-07-23T05:50:30;16.25;;;7.00;;
39140;SDS011;24875;48.436;10.298;2022-07-23T05:52:57;15.25;;;6.88;;
39140;SDS011;24875;48.436;10.298;2022-07-23T05:55:24;11.55;;;7.30;;
39140;SDS011;24875;48.436;10.298;2022-07-23T05:57:52;15.02;;;7.28;;
39140;SDS011;24875;48.436;10.298;2022-07-23T06:00:18;14.35;;;7.18;;
39140;SDS011;24875;48.436;10.298;2022-07-23T06:02:44;11.73;;;6.70;;
39140;SDS011;24875;48.436;10.298;2022-07-23T06:05:11;13.13;;;6.00;;
39140;SDS011;24875;48.436;10.298;2022-07-23T06:07:37;14.23;;;6.28;;
39140;SDS011;24875;48.436;10.298;2022-07-23T06:10:04;15.02;;;6.32;;
39140;SDS011;24875;48.436;10.298;2022-07-23T06:12:31;9.77;;;5.75;;
39140;SDS011;24875;48.436;10.298;2022-07-23T06:14:59;10.85;;;5.90;;
39140;SDS011;24875;48.436;10.298;2022-07-23T06:17:25;11.60;;;6.45;;
39140;SDS011;24875;48.436;10.298;2022-07-23T06:19:53;11.32;;;5.78;;
39140;SDS011;24875;48.436;10.298;2022-07-23T06:22:19;14.02;;;6.47;;
39140;SDS011;24875;48.436;10.298;2022-07-23T06:24:46;14.43;;;6.13;;
39140;SDS011;24875;48.436;10.298;2022-07-23T06:27:13;14.23;;;6.88;;
39140;SDS011;24875;48.436;10.298;2022-07-23T06:29:39;12.52;;;6.47;;
39140;SDS011;24875;48.436;10.298;2022-07-23T06:32:08;11.70;;;6.68;;
39140;SDS011;24875;48.436;10.298;2022-07-23T06:34:34;14.93;;;6.82;;
39140;SDS011;24875;48.436;10.298;2022-07-23T06:37:01;11.60;;;5.55;;
39140;SDS011;24875;48.436;10.298;2022-07-23T06:39:27;10.30;;;6.53;;
39140;SDS011;24875;48.436;10.298;2022-07-23T06:41:54;18.42;;;6.57;;
39140;SDS011;24875;48.436;10.298;2022-07-23T06:44:20;12.63;;;6.28;;
39140;SDS011;24875;48.436;10.298;2022-07-23T06:46:46;15.60;;;7.00;;
39140;SDS011;24875;48.436;10.298;2022-07-23T06:49:14;13.45;;;7.18;;
39140;SDS011;24875;48.436;10.298;2022-07-23T06:51:41;16.10;;;6.95;;
39140;SDS011;24875;48.436;10.298;2022-07-23T06:54:07;13.77;;;6.97;;
39140;SDS011;24875;48.436;10.298;2022-07-23T06:56:33;18.63;;;7.13;;
39140;SDS011;24875;48.436;10.298;2022-07-23T06:59:00;11.20;;;6.65;;
39140;SDS011;24875;48.436;10.298;2022-07-23T07:01:26;15.77;;;7.25;;
39140;SDS011;24875;48.436;10.298;2022-07-23T07:03:53;10.32;;;6.93;;
39140;SDS011;24875;48.436;10.298;2022-07-23T07:06:21;12.65;;;7.05;;
39140;SDS011;24875;48.436;10.298;2022-07-23T07:08:47;10.93;;;6.20;;
39140;SDS011;24875;48.436;10.298;2022-07-23T07:11:13;15.95;;;6.75;;
39140;SDS011;24875;48.436;10.298;2022-07-23T07:13:40;10.02;;;6.22;;
39140;SDS011;24875;48.436;10.298;2022-07-23T07:16:06;12.02;;;6.80;;
39140;SDS011;24875;48.436;10.298;2022-07-23T07:18:33;10.40;;;6.85;;
39140;SDS011;24875;48.436;10.298;2022-07-23T07:20:59;12.93;;;7.32;;
39140;SDS011;24875;48.436;10.298;2022-07-23T07:23:27;13.30;;;6.68;;
39140;SDS011;24875;48.436;10.298;2022-07-23T07:25:54;15.27;;;6.85;;
39140;SDS011;24875;48.436;10.298;2022-07-23T07:28:20;15.75;;;7.10;;
39140;SDS011;24875;48.436;10.298;2022-07-23T07:30:46;16.02;;;7.18;;
39140;SDS011;24875;48.436;10.298;2022-07-23T07:33:13;13.65;;;6.90;;
39140;SDS011;24875;48.436;10.298;2022-07-23T07:35:39;13.10;;;6.50;;
39140;SDS011;24875;48.436;10.298;2022-07-23T07:38:06;13.73;;;7.28;;
39140;SDS011;24875;48.436;10.298;2022-07-23T07:40:34;13.27;;;6.78;;
39140;SDS011;24875;48.436;10.298;2022-07-23T07:43:00;12.45;;;6.97;;
39140;SDS011;24875;48.436;10.298;2022-07-23T07:45:28;12.23;;;6.35;;
39140;SDS011;24875;48.436;10.298;2022-07-23T07:47:55;15.63;;;7.22;;
39140;SDS011;24875;48.436;10.298;2022-07-23T07:50:22;12.13;;;6.25;;
39140;SDS011;24875;48.436;10.298;2022-07-23T07:52:49;10.60;;;6.78;;
39140;SDS011;24875;48.436;10.298;2022-07-23T07:55:15;12.80;;;6.00;;
39140;SDS011;24875;48.436;10.298;2022-07-23T07:57:43;15.30;;;6.43;;
39140;SDS011;24875;48.436;10.298;2022-07-23T08:00:10;17.45;;;6.53;;
39140;SDS011;24875;48.436;10.298;2022-07-23T08:02:44;12.40;;;6.97;;
39140;SDS011;24875;48.436;10.298;2022-07-23T08:05:11;11.82;;;6.03;;
39140;SDS011;24875;48.436;10.298;2022-07-23T08:07:39;14.18;;;6.28;;
39140;SDS011;24875;48.436;10.298;2022-07-23T08:10:06;10.60;;;5.82;;
39140;SDS011;24875;48.436;10.298;2022-07-23T08:12:39;11.02;;;6.20;;
39140;SDS011;24875;48.436;10.298;2022-07-23T08:15:08;9.25;;;5.20;;
39140;SDS011;24875;48.436;10.298;2022-07-23T08:17:35;11.90;;;5.97;;
39140;SDS011;24875;48.436;10.298;2022-07-23T08:20:02;10.70;;;5.90;;
39140;SDS011;24875;48.436;10.298;2022-07-23T08:22:41;15.10;;;6.10;;
39140;SDS011;24875;48.436;10.298;2022-07-23T08:25:08;10.10;;;5.32;;
39140;SDS011;24875;48.436;10.298;2022-07-23T08:27:35;11.30;;;5.82;;
39140;SDS011;24875;48.436;10.298;2022-07-23T08:30:02;10.80;;;6.15;;
39140;SDS011;24875;48.436;10.298;2022-07-23T08:32:30;10.88;;;5.72;;
39140;SDS011;24875;48.436;10.298;2022-07-23T08:34:56;8.32;;;4.82;;
39140;SDS011;24875;48.436;10.298;2022-07-23T08:37:23;10.05;;;5.30;;
39140;SDS011;24875;48.436;10.298;2022-07-23T08:39:49;7.40;;;4.72;;
39140;SDS011;24875;48.436;10.298;2022-07-23T08:42:15;7.90;;;5.20;;
39140;SDS011;24875;48.436;10.298;2022-07-23T08:44:44;8.73;;;5.15;;
39140;SDS011;24875;48.436;10.298;2022-07-23T08:47:11;9.32;;;5.25;;
39140;SDS011;24875;48.436;10.298;2022-07-23T08:49:40;9.60;;;5.00;;
39140;SDS011;24875;48.436;10.298;2022-07-23T08:52:07;10.80;;;5.38;;
39140;SDS011;24875;48.436;10.298;2022-07-23T08:54:34;8.60;;;5.13;;
39140;SDS011;24875;48.436;10.298;2022-07-23T08:57:01;7.47;;;5.05;;
39140;SDS011;24875;48.436;10.298;2022-07-23T08:59:28;10.35;;;5.13;;
39140;SDS011;24875;48.436;10.298;2022-07-23T09:01:57;9.65;;;4.90;;
39140;SDS011;24875;48.436;10.298;2022-07-23T09:04:25;10.07;;;4.65;;
39140;SDS011;24875;48.436;10.298;2022-07-23T09:06:53;9.98;;;4.53;;
39140;SDS011;24875;48.436;10.298;2022-07-23T09:09:20;10.32;;;4.28;;
39140;SDS011;24875;48.436;10.298;2022-07-23T09:11:47;14.07;;;4.85;;
39140;SDS011;24875;48.436;10.298;2022-07-23T09:14:35;7.88;;;4.20;;
39140;SDS011;24875;48.436;10.298;2022-07-23T09:17:07;8.45;;;5.07;;
39140;SDS011;24875;48.436;10.298;2022-07-23T09:19:35;9.45;;;4.93;;
39140;SDS011;24875;48.436;10.298;2022-07-23T09:27:44;9.45;;;5.03;;
39140;SDS011;24875;48.436;10.298;2022-07-23T09:30:20;9.30;;;4.68;;
39140;SDS011;24875;48.436;10.298;2022-07-23T09:33:06;13.30;;;5.53;;
39140;SDS011;24875;48.436;10.298;2022-07-23T09:35:48;8.93;;;4.70;;
39140;SDS011;24875;48.436;10.298;2022-07-23T09:38:17;9.52;;;5.20;;
39140;SDS011;24875;48.436;10.298;2022-07-23T09:40:44;6.20;;;3.90;;
39140;SDS011;24875;48.436;10.298;2022-07-23T09:43:12;6.60;;;4.50;;
39140;SDS011;24875;48.436;10.298;2022-07-23T09:45:52;9.02;;;5.32;;
39140;SDS011;24875;48.436;10.298;2022-07-23T09:48:18;11.23;;;5.25;;
39140;SDS011;24875;48.436;10.298;2022-07-23T09:50:45;9.82;;;5.95;;
39140;SDS011;24875;48.436;10.298;2022-07-23T09:53:11;9.60;;;5.28;;
39140;SDS011;24875;48.436;10.298;2022-07-23T09:55:51;18.60;;;5.10;;
39140;SDS011;24875;48.436;10.298;2022-07-23T09:58:21;9.40;;;5.43;;
39140;SDS011;24875;48.436;10.298;2022-07-23T10:00:50;8.32;;;5.40;;
39140;SDS011;24875;48.436;10.298;2022-07-23T10:03:18;9.10;;;5.28;;
39140;SDS011;24875;48.436;10.298;2022-07-23T10:05:46;7.63;;;5.07;;
39140;SDS011;24875;48.436;10.298;2022-07-23T10:08:13;10.52;;;5.10;;
39140;SDS011;24875;48.436;10.298;2022-07-23T10:10:44;9.82;;;5.72;;
39140;SDS011;24875;48.436;10.298;2022-07-23T10:13:11;7.57;;;4.80;;
39140;SDS011;24875;48.436;10.298;2022-07-23T10:15:57;9.60;;;5.28;;
39140;SDS011;24875;48.436;10.298;2022-07-23T10:18:23;10.10;;;5.75;;
39140;SDS011;24875;48.436;10.298;2022-07-23T10:20:50;7.55;;;4.78;;
39140;SDS011;24875;48.436;10.298;2022-07-23T10:23:19;9.07;;;5.55;;
39140;SDS011;24875;48.436;10.298;2022-07-23T10:25:54;10.43;;;6.40;;
39140;SDS011;24875;48.436;10.298;2022-07-23T10:28:32;8.30;;;5.35;;
39140;SDS011;24875;48.436;10.298;2022-07-23T10:31:10;8.38;;;5.57;;
39140;SDS011;24875;48.436;10.298;2022-07-23T10:33:50;9.70;;;6.00;;
39140;SDS011;24875;48.436;10.298;2022-07-23T10:36:24;8.63;;;5.90;;
39140;SDS011;24875;48.436;10.298;2022-07-23T10:38:57;8.52;;;6.03;;
39140;SDS011;24875;48.436;10.298;2022-07-23T10:41:33;9.45;;;6.07;;
39140;SDS011;24875;48.436;10.298;2022-07-23T10:44:07;8.20;;;5.80;;
39140;SDS011;24875;48.436;10.298;2022-07-23T10:46:35;12.15;;;6.22;;
39140;SDS011;24875;48.436;10.298;2022-07-23T10:49:22;8.30;;;5.97;;
39140;SDS011;24875;48.436;10.298;2022-07-23T10:54:47;10.75;;;5.45;;
39140;SDS011;24875;48.436;10.298;2022-07-23T10:57:17;8.48;;;5.80;;
39140;SDS011;24875;48.436;10.298;2022-07-23T11:02:40;9.23;;;5.97;;
39140;SDS011;24875;48.436;10.298;2022-07-23T11:05:08;9.98;;;6.13;;
39140;SDS011;24875;48.436;10.298;2022-07-23T11:07:37;8.40;;;4.90;;
39140;SDS011;24875;48.436;10.298;2022-07-23T11:10:40;7.63;;;5.20;;
39140;SDS011;24875;48.436;10.298;2022-07-23T11:16:13;9.25;;;5.90;;
39140;SDS011;24875;48.436;10.298;2022-07-23T11:21:48;8.98;;;6.30;;
39140;SDS011;24875;48.436;10.298;2022-07-23T11:24:16;12.02;;;6.10;;
39140;SDS011;24875;48.436;10.298;2022-07-23T11:26:46;9.02;;;5.30;;
39140;SDS011;24875;48.436;10.298;2022-07-23T11:32:19;9.27;;;5.40;;
39140;SDS011;24875;48.436;10.298;2022-07-23T11:34:50;8.88;;;5.50;;
39140;SDS011;24875;48.436;10.298;2022-07-23T11:37:29;27.20;;;5.18;;
39140;SDS011;24875;48.436;10.298;2022-07-23T11:39:59;8.73;;;5.30;;
39140;SDS011;24875;48.436;10.298;2022-07-23T11:42:27;8.48;;;5.43;;
39140;SDS011;24875;48.436;10.298;2022-07-23T11:44:53;7.88;;;5.43;;
39140;SDS011;24875;48.436;10.298;2022-07-23T11:47:24;9.40;;;4.93;;
39140;SDS011;24875;48.436;10.298;2022-07-23T11:49:52;9.82;;;5.53;;
39140;SDS011;24875;48.436;10.298;2022-07-23T11:52:20;7.32;;;5.38;;
39140;SDS011;24875;48.436;10.298;2022-07-23T11:54:48;9.65;;;5.80;;
39140;SDS011;24875;48.436;10.298;2022-07-23T11:57:16;8.18;;;4.90;;
39140;SDS011;24875;48.436;10.298;2022-07-23T11:59:43;9.18;;;5.22;;
39140;SDS011;24875;48.436;10.298;2022-07-23T12:02:12;8.38;;;5.38;;
39140;SDS011;24875;48.436;10.298;2022-07-23T12:04:40;6.93;;;5.07;;
39140;SDS011;24875;48.436;10.298;2022-07-23T12:07:22;7.35;;;4.82;;
39140;SDS011;24875;48.436;10.298;2022-07-23T12:09:52;7.75;;;5.13;;
39140;SDS011;24875;48.436;10.298;2022-07-23T12:12:19;10.57;;;5.63;;
39140;SDS011;24875;48.436;10.298;2022-07-23T12:14:47;9.38;;;5.80;;
39140;SDS011;24875;48.436;10.298;2022-07-23T12:17:14;8.90;;;4.80;;
39140;SDS011;24875;48.436;10.298;2022-07-23T12:19:42;9.77;;;5.00;;
39140;SDS011;24875;48.436;10.298;2022-07-23T12:22:09;10.43;;;5.35;;
39140;SDS011;24875;48.436;10.298;2022-07-23T12:27:19;8.88;;;5.25;;
39140;SDS011;24875;48.436;10.298;2022-07-23T12:29:46;7.80;;;5.30;;
39140;SDS011;24875;48.436;10.298;2022-07-23T12:32:17;10.02;;;5.60;;
39140;SDS011;24875;48.436;10.298;2022-07-23T12:34:46;11.45;;;4.93;;
39140;SDS011;24875;48.436;10.298;2022-07-23T12:37:30;11.77;;;4.53;;
39140;SDS011;24875;48.436;10.298;2022-07-23T12:39:58;8.80;;;4.40;;
39140;SDS011;24875;48.436;10.298;2022-07-23T12:42:24;8.60;;;4.90;;
39140;SDS011;24875;48.436;10.298;2022-07-23T12:45:04;10.77;;;4.97;;
39140;SDS011;24875;48.436;10.298;2022-07-23T12:50:31;9.43;;;5.28;;
39140;SDS011;24875;48.436;10.298;2022-07-23T12:53:06;8.23;;;4.53;;
39140;SDS011;24875;48.436;10.298;2022-07-23T12:55:34;12.25;;;5.47;;
39140;SDS011;24875;48.436;10.298;2022-07-23T12:58:04;9.65;;;5.18;;
39140;SDS011;24875;48.436;10.298;2022-07-23T13:00:52;8.70;;;5.22;;
39140;SDS011;24875;48.436;10.298;2022-07-23T13:03:24;9.20;;;5.07;;
39140;SDS011;24875;48.436;10.298;2022-07-23T13:05:54;10.70;;;5.63;;
39140;SDS011;24875;48.436;10.298;2022-07-23T13:08:22;10.77;;;5.63;;
39140;SDS011;24875;48.436;10.298;2022-07-23T13:10:50;13.60;;;6.55;;
39140;SDS011;24875;48.436;10.298;2022-07-23T13:13:19;11.00;;;6.15;;
39140;SDS011;24875;48.436;10.298;2022-07-23T13:15:47;10.98;;;5.75;;
39140;SDS011;24875;48.436;10.298;2022-07-23T13:18:14;11.75;;;5.70;;
39140;SDS011;24875;48.436;10.298;2022-07-23T13:20:41;13.88;;;5.60;;
39140;SDS011;24875;48.436;10.298;2022-07-23T13:23:09;11.75;;;7.00;;
39140;SDS011;24875;48.436;10.298;2022-07-23T13:25:36;11.18;;;7.03;;
39140;SDS011;24875;48.436;10.298;2022-07-23T13:28:03;9.45;;;6.55;;
39140;SDS011;24875;48.436;10.298;2022-07-23T13:30:30;10.82;;;6.88;;
39140;SDS011;24875;48.436;10.298;2022-07-23T13:32:57;9.13;;;6.88;;
39140;SDS011;24875;48.436;10.298;2022-07-23T13:35:23;11.23;;;6.80;;
39140;SDS011;24875;48.436;10.298;2022-07-23T13:37:50;15.43;;;6.55;;
39140;SDS011;24875;48.436;10.298;2022-07-23T13:40:18;9.88;;;6.38;;
39140;SDS011;24875;48.436;10.298;2022-07-23T13:42:44;10.52;;;6.60;;
39140;SDS011;24875;48.436;10.298;2022-07-23T13:45:11;11.75;;;7.15;;
39140;SDS011;24875;48.436;10.298;2022-07-23T13:47:37;10.15;;;6.75;;
39140;SDS011;24875;48.436;10.298;2022-07-23T13:50:04;10.73;;;6.22;;
39140;SDS011;24875;48.436;10.298;2022-07-23T13:52:31;10.13;;;5.95;;
39140;SDS011;24875;48.436;10.298;2022-07-23T13:54:59;8.63;;;5.70;;
39140;SDS011;24875;48.436;10.298;2022-07-23T13:57:27;7.72;;;4.82;;
39140;SDS011;24875;48.436;10.298;2022-07-23T13:59:54;6.45;;;4.65;;
39140;SDS011;24875;48.436;10.298;2022-07-23T14:02:20;8.35;;;4.93;;
39140;SDS011;24875;48.436;10.298;2022-07-23T14:04:47;10.20;;;6.72;;
39140;SDS011;24875;48.436;10.298;2022-07-23T14:07:13;10.73;;;6.38;;
39140;SDS011;24875;48.436;10.298;2022-07-23T14:09:40;9.52;;;6.57;;
39140;SDS011;24875;48.436;10.298;2022-07-23T14:12:06;8.23;;;5.63;;
39140;SDS011;24875;48.436;10.298;2022-07-23T14:14:35;11.45;;;6.57;;
39140;SDS011;24875;48.436;10.298;2022-07-23T14:17:02;26.17;;;12.88;;
39140;SDS011;24875;48.436;10.298;2022-07-23T14:19:29;10.00;;;5.32;;
39140;SDS011;24875;48.436;10.298;2022-07-23T14:21:55;8.10;;;4.95;;
39140;SDS011;24875;48.436;10.298;2022-07-23T14:24:22;6.60;;;4.47;;
39140;SDS011;24875;48.436;10.298;2022-07-23T14:26:48;6.45;;;4.78;;
39140;SDS011;24875;48.436;10.298;2022-07-23T14:29:15;7.75;;;4.43;;
39140;SDS011;24875;48.436;10.298;2022-07-23T14:31:42;10.65;;;4.75;;
39140;SDS011;24875;48.436;10.298;2022-07-23T14:34:09;7.80;;;5.20;;
39140;SDS011;24875;48.436;10.298;2022-07-23T14:36:36;8.38;;;5.10;;
39140;SDS011;24875;48.436;10.298;2022-07-23T14:39:03;6.93;;;4.72;;
39140;SDS011;24875;48.436;10.298;2022-07-23T14:41:30;7.35;;;4.93;;
39140;SDS011;24875;48.436;10.298;2022-07-23T14:43:56;9.85;;;5.45;;
39140;SDS011;24875;48.436;10.298;2022-07-23T14:46:22;7.85;;;4.85;;
39140;SDS011;24875;48.436;10.298;2022-07-23T14:48:50;6.85;;;4.97;;
39140;SDS011;24875;48.436;10.298;2022-07-23T14:51:17;8.88;;;5.32;;
39140;SDS011;24875;48.436;10.298;2022-07-23T14:53:43;11.90;;;6.68;;
39140;SDS011;24875;48.436;10.298;2022-07-23T14:56:10;12.15;;;6.50;;